GMTN  Saniat Rmel Airport

Add Bookmark

Morocco

Status IATA
Operational TTU
Latitude Longitude
35° 35' 39" N 5° 19' 12" W
35.594299 -5.320020
Local (DST + 1) UTC (GMT 0)
Aug 30, 2014 07:12 Aug 30, 2014 06:12
Sunrise-Sunset Local UTC
Begin Civil Twilight 06:24 05:24
Sunrise 06:50 05:50
Sunset 07:52 18:52
End Civil Twilight 08:18 19:18

Current Weather

METAR Observed LIFR
GMTN 300500Z 00000KT 1200 BR BKN006 21/20 Q1014 BECMG 0700 FG BKN003 Sat, Aug 30, 2014 @ 05:00 UTC
(1 Hour, 12 Minutes ago)
Low Instrument Flight Rules
Wind Visibility Clouds Conditions
Calm 1000 meters
  • Broken at 600' AGL
  • Mist
Temperatures Readings Precipitation
Current Temp 21°C (70°F)
Dewpoint 20°C (68°F)
Humidity 94%
Altimeter 29.94"Hg
Sea Level Pressure 1014mb
Field Elevation 32.81'
None Recorded

Additional weather within a 92.6km radius of GMTN

Map ICAO Location
GMTT 55.9km W (285°)
LXGB 61.9km N (360°)

24 Hour Weather History

Loading
-

24 Hour Weather Graphs

Loading
-

CheckWX.com is intended as a tool to help pilots better visualize weather data. It is not intended as a substitute for an official weather briefing obtained from a Flight Service Station. CheckWX.com does not meet the FAA requirements for an official pre-flight weather briefing. Therefore, it's important that pilots still call and obtain an official FSS pre-flight weather briefing.